Time;durP1;ratioP1;P1;durP2;ratioP2;P2;SDS_P1;SDS_P2;PMS_P1;PMS_P2;Temp;Humidity;BMP_temperature;BMP_pressure;BME280_temperature;BME280_humidity;BME280_pressure;Samples;Min_cycle;Max_cycle;Signal;HPM_P1;HPM_P2
2021/01/25 00:01:56;;;;;;;3.25;2.42;;;;;;;;;;4995415;28;105928;-63
2021/01/25 00:04:22;;;;;;;4.60;2.80;;;;;;;;;;4995437;28;109549;-62
2021/01/25 00:06:47;;;;;;;4.13;2.67;;;;;;;;;;4976463;28;104989;-62
2021/01/25 00:09:13;;;;;;;4.15;2.50;;;;;;;;;;4995531;28;105350;-62
2021/01/25 00:11:38;;;;;;;4.15;2.47;;;;;;;;;;4995103;28;105088;-62
2021/01/25 00:14:04;;;;;;;4.10;2.60;;;;;;;;;;4996373;28;105654;-62
2021/01/25 00:16:29;;;;;;;4.00;2.65;;;;;;;;;;4998175;28;105079;-62
2021/01/25 00:18:55;;;;;;;3.60;2.88;;;;;;;;;;4998390;28;104973;-62
2021/01/25 00:21:20;;;;;;;3.83;2.72;;;;;;;;;;4998386;28;116879;-62
2021/01/25 00:23:46;;;;;;;3.78;2.53;;;;;;;;;;4995949;28;107131;-62
2021/01/25 00:26:11;;;;;;;4.13;2.72;;;;;;;;;;4998248;28;105315;-62
2021/01/25 00:28:37;;;;;;;3.70;2.45;;;;;;;;;;4967008;28;106249;-62
2021/01/25 00:31:02;;;;;;;3.55;2.67;;;;;;;;;;4997604;28;105414;-62
2021/01/25 00:33:27;;;;;;;4.68;2.72;;;;;;;;;;5001554;28;105111;-61
2021/01/25 00:35:53;;;;;;;3.53;2.60;;;;;;;;;;4979229;28;105083;-61
2021/01/25 00:38:18;;;;;;;3.47;2.60;;;;;;;;;;4980193;28;106075;-62
2021/01/25 00:40:45;;;;;;;3.92;2.65;;;;;;;;;;4980374;28;105908;-62
2021/01/25 00:43:11;;;;;;;3.78;2.50;;;;;;;;;;4996624;28;105577;-62
2021/01/25 00:45:36;;;;;;;2.78;2.28;;;;;;;;;;4980901;28;105027;-62
2021/01/25 00:48:02;;;;;;;4.20;2.50;;;;;;;;;;4979714;28;105084;-62
2021/01/25 00:50:27;;;;;;;3.22;2.42;;;;;;;;;;4996230;28;108403;-62
2021/01/25 00:52:55;;;;;;;3.13;2.40;;;;;;;;;;4984145;28;105154;-62
2021/01/25 00:55:23;;;;;;;3.55;2.40;;;;;;;;;;4980168;28;108042;-62
2021/01/25 00:57:49;;;;;;;4.20;2.58;;;;;;;;;;4996032;28;106982;-62
2021/01/25 01:00:15;;;;;;;3.35;2.47;;;;;;;;;;4994441;28;114629;-62
2021/01/25 01:02:40;;;;;;;3.20;2.42;;;;;;;;;;4993858;28;105829;-62
2021/01/25 01:05:07;;;;;;;4.38;2.55;;;;;;;;;;4997826;28;104954;-62
2021/01/25 01:07:32;;;;;;;3.65;2.47;;;;;;;;;;4997576;28;105891;-62
2021/01/25 01:09:58;;;;;;;3.95;2.58;;;;;;;;;;4980287;28;105030;-62
2021/01/25 01:12:23;;;;;;;3.47;2.60;;;;;;;;;;4998396;28;105022;-62
2021/01/25 01:14:49;;;;;;;3.83;2.67;;;;;;;;;;5000742;28;105066;-63
2021/01/25 01:17:14;;;;;;;3.85;2.75;;;;;;;;;;4998015;28;106550;-62
2021/01/25 01:19:40;;;;;;;3.28;2.65;;;;;;;;;;4997205;28;105918;-62
2021/01/25 01:22:05;;;;;;;4.45;2.67;;;;;;;;;;4997183;28;108000;-62
2021/01/25 01:24:30;;;;;;;3.55;2.60;;;;;;;;;;4978997;28;105083;-62
2021/01/25 01:26:56;;;;;;;4.75;2.85;;;;;;;;;;4996497;28;105051;-62
2021/01/25 01:29:21;;;;;;;3.60;2.53;;;;;;;;;;4996070;28;106264;-62
2021/01/25 01:31:47;;;;;;;3.53;2.47;;;;;;;;;;4998251;28;104996;-62
2021/01/25 01:34:12;;;;;;;3.38;2.40;;;;;;;;;;4997501;28;105730;-62
2021/01/25 01:36:38;;;;;;;4.70;2.60;;;;;;;;;;4999999;28;105573;-62
2021/01/25 01:39:04;;;;;;;3.10;2.22;;;;;;;;;;4997281;28;105010;-62
2021/01/25 01:41:36;;;;;;;3.80;2.70;;;;;;;;;;4980000;28;105827;-62
2021/01/25 01:44:03;;;;;;;4.25;2.75;;;;;;;;;;4996667;28;105003;-62
2021/01/25 01:46:29;;;;;;;5.38;3.13;;;;;;;;;;4997291;28;105712;-62
2021/01/25 01:48:54;;;;;;;4.03;3.10;;;;;;;;;;4975924;28;105279;-62
2021/01/25 01:51:20;;;;;;;3.55;2.80;;;;;;;;;;4979889;28;105677;-62
2021/01/25 01:53:45;;;;;;;4.32;2.88;;;;;;;;;;4962099;28;105019;-62
2021/01/25 01:56:11;;;;;;;4.28;2.97;;;;;;;;;;4978799;28;105815;-62
2021/01/25 01:58:36;;;;;;;3.85;2.78;;;;;;;;;;4982207;28;105088;-62
2021/01/25 02:01:02;;;;;;;4.53;3.30;;;;;;;;;;4977937;28;112060;-62
2021/01/25 02:03:27;;;;;;;3.65;2.72;;;;;;;;;;4977467;28;105332;-62
2021/01/25 02:05:52;;;;;;;4.43;2.90;;;;;;;;;;4977368;28;105007;-62
2021/01/25 02:08:19;;;;;;;4.45;3.35;;;;;;;;;;4979688;28;105337;-62
2021/01/25 02:10:45;;;;;;;4.75;3.35;;;;;;;;;;4977917;28;105009;-62
2021/01/25 02:13:10;;;;;;;4.95;3.13;;;;;;;;;;4964151;28;105717;-62
2021/01/25 02:15:36;;;;;;;4.63;3.20;;;;;;;;;;4996040;28;105068;-62
2021/01/25 02:18:01;;;;;;;5.25;3.38;;;;;;;;;;4978123;28;105178;-62
2021/01/25 02:20:37;;;;;;;5.18;3.28;;;;;;;;;;5000131;28;105643;-62
2021/01/25 02:23:17;;;;;;;4.03;2.95;;;;;;;;;;4994327;28;105840;-62
2021/01/25 02:26:07;;;;;;;4.22;3.10;;;;;;;;;;4995871;28;105132;-62
2021/01/25 02:28:33;;;;;;;3.90;2.65;;;;;;;;;;4996469;28;104964;-62
2021/01/25 02:31:02;;;;;;;3.47;2.63;;;;;;;;;;4975983;28;105410;-62
2021/01/25 02:33:27;;;;;;;4.22;2.90;;;;;;;;;;4994336;28;105691;-62
2021/01/25 02:35:53;;;;;;;5.15;3.22;;;;;;;;;;4977819;28;110657;-62
2021/01/25 02:38:19;;;;;;;4.55;3.15;;;;;;;;;;4977342;28;105085;-62
2021/01/25 02:40:46;;;;;;;4.78;2.80;;;;;;;;;;4995618;28;105516;-62
2021/01/25 02:43:12;;;;;;;4.55;3.33;;;;;;;;;;4999487;28;105691;-63
2021/01/25 02:45:37;;;;;;;3.58;2.88;;;;;;;;;;4996042;28;105665;-63
2021/01/25 02:48:03;;;;;;;4.20;3.13;;;;;;;;;;4977097;28;106752;-62
2021/01/25 02:50:28;;;;;;;4.75;3.30;;;;;;;;;;4962201;28;105056;-62
2021/01/25 02:52:54;;;;;;;3.97;2.97;;;;;;;;;;4995898;28;105671;-62
2021/01/25 02:55:19;;;;;;;4.22;3.15;;;;;;;;;;4978209;28;111567;-62
2021/01/25 02:57:45;;;;;;;4.00;3.08;;;;;;;;;;4978751;28;105590;-62
2021/01/25 03:00:11;;;;;;;4.30;3.30;;;;;;;;;;4963524;28;105082;-62
2021/01/25 03:02:37;;;;;;;5.13;3.40;;;;;;;;;;4980460;28;105570;-62
2021/01/25 03:05:04;;;;;;;4.80;3.22;;;;;;;;;;4977706;28;105090;-62
2021/01/25 03:07:29;;;;;;;5.30;3.35;;;;;;;;;;4978649;28;105452;-62
2021/01/25 03:10:02;;;;;;;4.57;3.20;;;;;;;;;;4996037;28;105567;-62
2021/01/25 03:12:28;;;;;;;4.53;3.30;;;;;;;;;;4992626;28;105452;-62
2021/01/25 03:14:53;;;;;;;3.72;2.92;;;;;;;;;;4978176;28;105075;-62
2021/01/25 03:17:19;;;;;;;5.78;3.35;;;;;;;;;;4996593;28;105469;-62
2021/01/25 03:19:44;;;;;;;4.57;3.13;;;;;;;;;;4978053;28;105075;-62
2021/01/25 03:22:10;;;;;;;4.07;3.13;;;;;;;;;;4995500;28;105756;-62
2021/01/25 03:24:35;;;;;;;5.35;3.53;;;;;;;;;;4999006;28;105614;-62
2021/01/25 03:27:01;;;;;;;4.10;3.03;;;;;;;;;;4993489;28;111240;-62
2021/01/25 03:29:26;;;;;;;4.00;3.08;;;;;;;;;;4996110;28;105245;-62
2021/01/25 03:31:52;;;;;;;4.15;3.03;;;;;;;;;;4995550;28;105008;-62
2021/01/25 03:34:17;;;;;;;3.78;2.97;;;;;;;;;;4995357;28;105392;-62
2021/01/25 03:36:43;;;;;;;4.13;3.13;;;;;;;;;;4994892;28;105497;-62
2021/01/25 03:39:08;;;;;;;3.63;3.08;;;;;;;;;;4996546;28;105604;-62
2021/01/25 03:41:34;;;;;;;4.03;2.90;;;;;;;;;;4995622;28;105477;-62
2021/01/25 03:43:59;;;;;;;4.88;3.08;;;;;;;;;;4961593;28;106212;-62
2021/01/25 03:46:25;;;;;;;3.53;2.85;;;;;;;;;;4996871;28;105022;-62
2021/01/25 03:48:50;;;;;;;3.75;2.90;;;;;;;;;;4996932;28;105278;-62
2021/01/25 03:51:16;;;;;;;4.57;2.80;;;;;;;;;;4996485;28;105193;-62
2021/01/25 03:53:41;;;;;;;4.28;2.88;;;;;;;;;;4997451;28;105468;-62
2021/01/25 03:56:07;;;;;;;3.92;2.83;;;;;;;;;;4998681;28;105043;-62
2021/01/25 03:58:32;;;;;;;4.28;2.80;;;;;;;;;;4981196;28;108233;-62
2021/01/25 04:00:58;;;;;;;3.83;2.70;;;;;;;;;;4998149;28;104935;-62
2021/01/25 04:03:23;;;;;;;3.80;2.70;;;;;;;;;;4997891;28;106175;-62
2021/01/25 04:05:49;;;;;;;3.85;2.78;;;;;;;;;;4998357;28;105679;-62
2021/01/25 04:08:14;;;;;;;3.75;2.90;;;;;;;;;;5002265;28;106419;-62
2021/01/25 04:10:40;;;;;;;3.40;2.60;;;;;;;;;;4998504;28;105582;-62
2021/01/25 04:13:05;;;;;;;4.63;3.05;;;;;;;;;;4997391;28;105514;-63
2021/01/25 04:15:31;;;;;;;4.03;2.67;;;;;;;;;;4994064;28;105194;-63
2021/01/25 04:17:56;;;;;;;3.60;2.50;;;;;;;;;;4998532;28;105174;-62
2021/01/25 04:20:22;;;;;;;3.60;2.70;;;;;;;;;;4997927;28;105003;-62
2021/01/25 04:22:47;;;;;;;4.22;2.80;;;;;;;;;;4998015;28;105966;-62
2021/01/25 04:25:13;;;;;;;3.95;2.80;;;;;;;;;;4994512;28;105107;-62
2021/01/25 04:27:38;;;;;;;3.72;2.60;;;;;;;;;;4976614;28;105430;-63
2021/01/25 04:30:08;;;;;;;3.63;2.75;;;;;;;;;;4967448;28;105013;-63
2021/01/25 04:32:37;;;;;;;3.97;2.72;;;;;;;;;;4980764;28;105029;-63
2021/01/25 04:35:10;;;;;;;3.42;2.58;;;;;;;;;;4996404;28;105055;-62
2021/01/25 04:37:37;;;;;;;4.90;2.78;;;;;;;;;;4998304;28;105624;-62
2021/01/25 04:40:07;;;;;;;3.90;2.72;;;;;;;;;;4996586;28;105770;-62
2021/01/25 04:42:33;;;;;;;4.13;2.40;;;;;;;;;;4980872;28;105203;-62
2021/01/25 04:44:58;;;;;;;3.20;2.45;;;;;;;;;;4998008;28;104985;-62
2021/01/25 04:47:23;;;;;;;3.75;2.67;;;;;;;;;;4961857;28;105846;-62
2021/01/25 04:49:50;;;;;;;4.20;2.75;;;;;;;;;;4981938;28;105100;-62
2021/01/25 04:52:16;;;;;;;3.97;2.75;;;;;;;;;;4980936;28;105372;-62
2021/01/25 04:54:42;;;;;;;4.18;2.83;;;;;;;;;;4998060;28;105058;-62
2021/01/25 04:57:07;;;;;;;3.60;2.75;;;;;;;;;;4981309;28;105315;-62
2021/01/25 04:59:33;;;;;;;3.40;2.60;;;;;;;;;;4980353;28;105594;-62
2021/01/25 05:01:59;;;;;;;3.97;2.67;;;;;;;;;;4979226;28;105056;-62
2021/01/25 05:04:24;;;;;;;2.50;1.98;;;;;;;;;;4964190;28;109773;-62
2021/01/25 05:06:50;;;;;;;2.50;1.77;;;;;;;;;;4980950;28;105138;-62
2021/01/25 05:09:15;;;;;;;2.72;2.00;;;;;;;;;;4965098;28;105099;-62
2021/01/25 05:11:40;;;;;;;2.17;1.60;;;;;;;;;;5001362;28;105659;-62
2021/01/25 05:14:06;;;;;;;2.38;1.63;;;;;;;;;;4997681;28;105071;-62
2021/01/25 05:16:32;;;;;;;2.67;2.00;;;;;;;;;;4996354;28;105409;-62
2021/01/25 05:18:59;;;;;;;2.70;2.03;;;;;;;;;;4997179;28;105070;-62
2021/01/25 05:21:44;;;;;;;3.92;2.30;;;;;;;;;;4980677;28;105126;-62
2021/01/25 05:24:11;;;;;;;2.33;2.10;;;;;;;;;;4979780;28;105561;-62
2021/01/25 05:26:58;;;;;;;3.28;2.30;;;;;;;;;;4979111;28;105604;-62
2021/01/25 05:29:24;;;;;;;2.75;2.30;;;;;;;;;;4994858;28;105329;-62
2021/01/25 05:31:51;;;;;;;2.65;2.00;;;;;;;;;;4997715;28;105726;-62
2021/01/25 05:34:18;;;;;;;2.92;2.03;;;;;;;;;;4966398;28;105668;-62
2021/01/25 05:36:43;;;;;;;2.53;1.95;;;;;;;;;;4996521;28;105393;-62
2021/01/25 05:39:09;;;;;;;2.28;1.90;;;;;;;;;;4980784;28;105463;-62
2021/01/25 05:41:37;;;;;;;3.22;2.35;;;;;;;;;;4979395;28;104899;-62
2021/01/25 05:44:04;;;;;;;2.50;1.90;;;;;;;;;;4980673;28;105796;-62
2021/01/25 05:46:30;;;;;;;2.97;2.20;;;;;;;;;;4964058;28;105237;-62
2021/01/25 05:48:57;;;;;;;2.40;2.00;;;;;;;;;;4997225;28;105098;-62
2021/01/25 05:51:22;;;;;;;2.17;1.88;;;;;;;;;;4997465;28;105197;-62
2021/01/25 05:53:48;;;;;;;2.50;1.80;;;;;;;;;;4992669;28;118336;-62
2021/01/25 05:56:14;;;;;;;2.00;1.80;;;;;;;;;;4983907;28;105208;-62
2021/01/25 05:58:40;;;;;;;4.22;2.25;;;;;;;;;;4996115;28;105426;-62
2021/01/25 06:01:05;;;;;;;3.10;2.10;;;;;;;;;;4963789;28;105213;-62
2021/01/25 06:03:36;;;;;;;2.47;1.85;;;;;;;;;;4992039;28;105018;-62
2021/01/25 06:06:06;;;;;;;2.67;1.88;;;;;;;;;;4995947;28;105764;-62
2021/01/25 06:08:34;;;;;;;1.73;1.60;;;;;;;;;;4995933;28;105324;-62
2021/01/25 06:11:21;;;;;;;2.40;1.80;;;;;;;;;;4996811;28;105253;-62
2021/01/25 06:13:54;;;;;;;2.42;1.90;;;;;;;;;;4995506;28;108074;-62
2021/01/25 06:16:24;;;;;;;3.05;2.15;;;;;;;;;;4992003;28;105011;-62
2021/01/25 06:18:50;;;;;;;3.35;2.20;;;;;;;;;;4981750;28;105024;-62
2021/01/25 06:21:21;;;;;;;2.75;2.10;;;;;;;;;;4999130;28;105134;-62
2021/01/25 06:23:47;;;;;;;2.28;1.88;;;;;;;;;;4961326;28;105738;-62
2021/01/25 06:26:13;;;;;;;2.17;1.80;;;;;;;;;;4996308;28;105427;-62
2021/01/25 06:28:40;;;;;;;2.65;2.00;;;;;;;;;;4996196;28;105077;-62
2021/01/25 06:31:05;;;;;;;2.00;1.80;;;;;;;;;;4979326;28;105503;-62
2021/01/25 06:33:36;;;;;;;2.28;1.80;;;;;;;;;;4978514;28;105025;-62
2021/01/25 06:36:05;;;;;;;1.70;1.60;;;;;;;;;;4996601;28;105135;-61
2021/01/25 06:38:33;;;;;;;2.47;1.85;;;;;;;;;;4979172;28;105222;-61
2021/01/25 06:40:58;;;;;;;2.20;1.75;;;;;;;;;;4981191;28;105541;-61
2021/01/25 06:43:24;;;;;;;2.67;1.80;;;;;;;;;;4962768;28;105932;-61
2021/01/25 06:45:50;;;;;;;1.90;1.70;;;;;;;;;;4978476;28;105039;-61
2021/01/25 06:48:15;;;;;;;1.90;1.70;;;;;;;;;;4963522;28;106513;-62
2021/01/25 06:50:48;;;;;;;2.58;1.95;;;;;;;;;;4994692;28;105685;-63
2021/01/25 06:53:13;;;;;;;2.22;1.60;;;;;;;;;;4996270;28;104997;-62
2021/01/25 06:55:40;;;;;;;2.13;1.70;;;;;;;;;;4996039;28;104956;-62
2021/01/25 06:58:06;;;;;;;2.47;1.70;;;;;;;;;;4997493;28;105172;-62
2021/01/25 07:00:34;;;;;;;2.03;1.67;;;;;;;;;;4979673;28;105460;-62
2021/01/25 07:03:02;;;;;;;3.08;1.50;;;;;;;;;;4980885;28;105038;-62
2021/01/25 07:05:31;;;;;;;2.00;1.50;;;;;;;;;;4975887;28;105111;-62
2021/01/25 07:08:15;;;;;;;2.55;1.80;;;;;;;;;;4994748;28;104967;-62
2021/01/25 07:10:58;;;;;;;2.28;1.83;;;;;;;;;;4994953;28;104991;-62
2021/01/25 07:13:33;;;;;;;1.60;1.40;;;;;;;;;;4996696;28;105463;-62
2021/01/25 07:15:59;;;;;;;1.95;1.50;;;;;;;;;;4975156;28;106819;-62
2021/01/25 07:18:26;;;;;;;2.38;1.48;;;;;;;;;;4988513;28;105420;-62
2021/01/25 07:20:52;;;;;;;1.90;1.50;;;;;;;;;;4963503;28;105519;-62
2021/01/25 07:23:19;;;;;;;2.25;1.67;;;;;;;;;;4967237;28;105141;-62
2021/01/25 07:25:51;;;;;;;1.67;1.55;;;;;;;;;;4989477;28;105052;-63
2021/01/25 07:28:16;;;;;;;1.77;1.40;;;;;;;;;;4989210;28;104961;-62
2021/01/25 07:30:42;;;;;;;1.35;1.25;;;;;;;;;;4992062;28;104987;-62
2021/01/25 07:33:07;;;;;;;1.75;1.55;;;;;;;;;;4990705;28;105082;-62
2021/01/25 07:35:33;;;;;;;1.50;1.40;;;;;;;;;;4989941;28;105476;-62
2021/01/25 07:37:58;;;;;;;1.58;1.42;;;;;;;;;;4992681;28;105038;-62
2021/01/25 07:40:24;;;;;;;2.00;1.58;;;;;;;;;;4993385;28;105360;-63
2021/01/25 07:42:50;;;;;;;1.95;1.33;;;;;;;;;;4989630;28;104951;-62
2021/01/25 07:45:16;;;;;;;1.73;1.50;;;;;;;;;;4980809;28;105609;-62
2021/01/25 07:47:45;;;;;;;1.40;1.30;;;;;;;;;;4960362;28;105444;-62
2021/01/25 07:50:11;;;;;;;1.70;1.40;;;;;;;;;;4995047;28;104951;-62
2021/01/25 07:52:37;;;;;;;1.73;1.20;;;;;;;;;;4994395;28;105368;-62
2021/01/25 07:55:15;;;;;;;1.75;1.33;;;;;;;;;;4993635;28;105533;-62
2021/01/25 07:57:41;;;;;;;1.50;1.40;;;;;;;;;;4991164;28;105229;-62
2021/01/25 08:00:23;;;;;;;1.27;1.17;;;;;;;;;;4994101;28;105044;-62
2021/01/25 08:03:21;;;;;;;5.32;3.72;;;;;;;;;;4960796;28;105073;-62
2021/01/25 08:05:51;;;;;;;5.38;3.83;;;;;;;;;;4973443;28;105038;-62
2021/01/25 08:08:16;;;;;;;5.57;3.92;;;;;;;;;;4962066;28;106757;-61
2021/01/25 08:10:42;;;;;;;5.88;4.00;;;;;;;;;;4960342;28;105531;-61
2021/01/25 08:13:14;;;;;;;5.70;3.90;;;;;;;;;;4977874;28;105643;-61
2021/01/25 08:15:39;;;;;;;5.75;4.18;;;;;;;;;;4992488;28;105015;-61
2021/01/25 08:18:06;;;;;;;6.15;3.85;;;;;;;;;;4974330;28;105065;-63
2021/01/25 08:20:33;;;;;;;6.20;3.90;;;;;;;;;;4976924;28;105461;-63
2021/01/25 08:23:02;;;;;;;5.82;4.07;;;;;;;;;;4975767;28;105137;-61
2021/01/25 08:25:28;;;;;;;5.78;4.18;;;;;;;;;;4972484;28;105146;-61
2021/01/25 08:28:00;;;;;;;5.80;4.50;;;;;;;;;;4992591;28;106908;-62
2021/01/25 08:30:33;;;;;;;6.05;4.40;;;;;;;;;;4961396;28;105179;-62
2021/01/25 08:33:02;;;;;;;6.43;4.60;;;;;;;;;;4994523;28;105054;-62
2021/01/25 08:35:33;;;;;;;6.75;4.78;;;;;;;;;;4978540;28;105256;-62
2021/01/25 08:38:09;;;;;;;7.00;5.03;;;;;;;;;;4964722;28;105753;-62
2021/01/25 08:40:37;;;;;;;6.78;4.55;;;;;;;;;;4978543;28;105409;-62
2021/01/25 08:43:03;;;;;;;6.95;4.72;;;;;;;;;;4979927;28;105983;-63
2021/01/25 08:45:31;;;;;;;7.20;4.55;;;;;;;;;;4945682;28;107173;-63
2021/01/25 08:48:07;;;;;;;4.55;3.60;;;;;;;;;;4978250;28;105575;-62
2021/01/25 08:50:33;;;;;;;6.90;4.88;;;;;;;;;;4979120;28;104924;-62
2021/01/25 08:53:07;;;;;;;6.65;4.32;;;;;;;;;;4998016;28;105697;-62
2021/01/25 08:55:40;;;;;;;6.57;4.53;;;;;;;;;;4997217;28;104901;-62
2021/01/25 08:58:31;;;;;;;6.38;4.40;;;;;;;;;;4977033;28;105184;-62
2021/01/25 09:00:57;;;;;;;7.45;4.70;;;;;;;;;;4997327;28;105335;-62
2021/01/25 09:03:25;;;;;;;6.65;4.18;;;;;;;;;;4995412;28;105171;-62
2021/01/25 09:05:52;;;;;;;6.32;4.20;;;;;;;;;;4962422;28;105721;-62
2021/01/25 09:08:18;;;;;;;6.45;4.22;;;;;;;;;;4994375;28;105623;-63
2021/01/25 09:10:44;;;;;;;5.97;4.32;;;;;;;;;;4978951;28;105265;-63
2021/01/25 09:13:09;;;;;;;7.05;4.75;;;;;;;;;;4997143;28;105119;-63
2021/01/25 09:15:35;;;;;;;8.18;5.55;;;;;;;;;;4997413;28;104999;-62
2021/01/25 09:18:00;;;;;;;6.28;4.25;;;;;;;;;;4995429;28;108119;-62
2021/01/25 09:20:26;;;;;;;6.93;4.32;;;;;;;;;;4994888;28;105558;-62
2021/01/25 09:22:51;;;;;;;6.53;4.15;;;;;;;;;;4978118;28;105462;-63
2021/01/25 09:25:18;;;;;;;5.75;3.78;;;;;;;;;;4977795;28;105672;-63
2021/01/25 09:27:43;;;;;;;6.05;4.18;;;;;;;;;;4977459;28;105758;-63
2021/01/25 09:30:10;;;;;;;6.35;3.90;;;;;;;;;;4979669;28;105775;-62
2021/01/25 09:32:35;;;;;;;5.53;3.97;;;;;;;;;;4980023;28;105729;-63
2021/01/25 09:35:01;;;;;;;6.32;3.95;;;;;;;;;;4981956;28;105699;-63
2021/01/25 09:37:26;;;;;;;6.57;4.20;;;;;;;;;;4995823;28;104854;-63
2021/01/25 09:39:52;;;;;;;6.00;4.18;;;;;;;;;;4994662;28;105022;-62
2021/01/25 09:42:18;;;;;;;5.80;3.90;;;;;;;;;;4996983;28;105043;-62
2021/01/25 09:44:43;;;;;;;6.35;4.20;;;;;;;;;;4995660;28;105075;-62
2021/01/25 09:47:09;;;;;;;5.22;3.58;;;;;;;;;;4992184;28;105926;-62
2021/01/25 09:49:34;;;;;;;5.65;3.78;;;;;;;;;;4995523;28;105022;-62
2021/01/25 09:52:00;;;;;;;6.18;4.07;;;;;;;;;;4991594;28;105090;-62
2021/01/25 09:54:25;;;;;;;5.40;4.18;;;;;;;;;;4994928;28;105571;-62
2021/01/25 09:56:51;;;;;;;6.47;4.03;;;;;;;;;;5000505;28;104923;-62
2021/01/25 09:59:16;;;;;;;5.00;3.63;;;;;;;;;;4996207;28;105698;-62
2021/01/25 10:01:42;;;;;;;6.65;3.90;;;;;;;;;;4972657;28;104890;-62
2021/01/25 10:04:07;;;;;;;5.95;4.15;;;;;;;;;;4979100;28;105823;-62
2021/01/25 10:06:33;;;;;;;5.63;4.10;;;;;;;;;;4978009;28;105110;-62
2021/01/25 10:08:58;;;;;;;5.57;3.90;;;;;;;;;;4994397;28;105203;-62
2021/01/25 10:11:24;;;;;;;5.55;4.20;;;;;;;;;;4979257;28;105660;-62
2021/01/25 10:13:50;;;;;;;6.35;4.43;;;;;;;;;;4996105;28;106045;-62
2021/01/25 10:16:16;;;;;;;7.18;4.60;;;;;;;;;;4995161;28;105059;-63
2021/01/25 10:18:41;;;;;;;5.72;3.78;;;;;;;;;;4997239;28;114817;-63
2021/01/25 10:21:07;;;;;;;6.75;4.35;;;;;;;;;;4996702;28;105050;-63
2021/01/25 10:23:32;;;;;;;6.05;3.88;;;;;;;;;;4995418;28;105233;-63
2021/01/25 10:25:59;;;;;;;6.03;3.60;;;;;;;;;;4994970;28;105617;-63
2021/01/25 10:28:25;;;;;;;5.85;3.80;;;;;;;;;;4996977;28;104962;-63
2021/01/25 10:30:50;;;;;;;5.10;3.65;;;;;;;;;;4996255;28;105814;-63
2021/01/25 10:33:16;;;;;;;5.38;3.58;;;;;;;;;;4978542;28;105709;-63
2021/01/25 10:35:41;;;;;;;6.45;4.00;;;;;;;;;;4977799;28;105044;-63
2021/01/25 10:38:07;;;;;;;5.40;3.20;;;;;;;;;;4978272;28;105404;-63
2021/01/25 10:40:32;;;;;;;5.03;3.40;;;;;;;;;;4999682;28;106072;-63
2021/01/25 10:42:58;;;;;;;5.65;3.10;;;;;;;;;;4978306;28;112983;-63
2021/01/25 10:45:23;;;;;;;4.15;2.80;;;;;;;;;;4995914;28;106629;-63
2021/01/25 10:47:49;;;;;;;5.32;3.30;;;;;;;;;;4993081;28;105879;-63
2021/01/25 10:50:14;;;;;;;5.35;3.00;;;;;;;;;;4995598;28;104954;-63
2021/01/25 10:52:40;;;;;;;4.07;2.50;;;;;;;;;;4995073;28;105602;-63
2021/01/25 10:55:06;;;;;;;4.32;2.80;;;;;;;;;;4977709;28;105289;-63
2021/01/25 10:57:33;;;;;;;4.15;2.55;;;;;;;;;;4970917;28;105492;-63
2021/01/25 11:00:01;;;;;;;3.60;2.58;;;;;;;;;;4992845;28;106085;-63
2021/01/25 11:02:26;;;;;;;4.68;3.03;;;;;;;;;;4976992;28;105124;-63
2021/01/25 11:04:52;;;;;;;5.43;3.20;;;;;;;;;;4990387;28;105994;-63
2021/01/25 11:07:17;;;;;;;5.32;3.17;;;;;;;;;;4996102;28;105068;-63
2021/01/25 11:09:43;;;;;;;4.80;2.92;;;;;;;;;;4996762;28;105781;-63
2021/01/25 11:12:08;;;;;;;5.95;3.30;;;;;;;;;;4995722;28;105053;-63
2021/01/25 11:14:34;;;;;;;4.82;3.22;;;;;;;;;;4992630;28;105105;-63
2021/01/25 11:16:59;;;;;;;4.70;2.58;;;;;;;;;;4995397;28;105701;-63
2021/01/25 11:19:25;;;;;;;4.28;2.53;;;;;;;;;;4995783;28;104972;-63
2021/01/25 11:21:50;;;;;;;4.43;2.60;;;;;;;;;;4999365;28;104965;-63
2021/01/25 11:24:16;;;;;;;5.30;3.47;;;;;;;;;;4977652;28;107170;-63
2021/01/25 11:26:41;;;;;;;5.80;3.28;;;;;;;;;;4990351;28;105020;-63
2021/01/25 11:29:07;;;;;;;6.15;3.60;;;;;;;;;;4991395;28;105547;-63
2021/01/25 11:31:33;;;;;;;4.25;2.97;;;;;;;;;;4992035;28;105665;-63
2021/01/25 11:33:58;;;;;;;3.58;2.88;;;;;;;;;;4995770;28;105085;-63
2021/01/25 11:36:24;;;;;;;3.80;3.10;;;;;;;;;;4994313;28;105097;-63
2021/01/25 11:38:50;;;;;;;5.30;3.30;;;;;;;;;;4976376;28;105100;-63
2021/01/25 11:41:17;;;;;;;5.05;2.80;;;;;;;;;;4975031;28;105163;-63
2021/01/25 11:43:43;;;;;;;4.85;2.63;;;;;;;;;;4979297;28;105557;-63
2021/01/25 11:46:08;;;;;;;2.97;2.42;;;;;;;;;;4977455;28;105164;-63
2021/01/25 11:48:34;;;;;;;3.58;2.40;;;;;;;;;;4993650;28;105299;-63
2021/01/25 11:50:59;;;;;;;4.82;2.70;;;;;;;;;;4995964;28;105627;-63
2021/01/25 11:53:25;;;;;;;3.45;2.60;;;;;;;;;;4976428;28;105113;-63
2021/01/25 11:55:50;;;;;;;3.63;2.40;;;;;;;;;;4994694;28;105692;-63
2021/01/25 11:58:15;;;;;;;4.03;2.80;;;;;;;;;;4993309;28;105329;-63
2021/01/25 12:00:41;;;;;;;4.93;3.10;;;;;;;;;;4992660;28;105359;-63
2021/01/25 12:03:06;;;;;;;7.95;4.70;;;;;;;;;;4993475;28;105017;-63
2021/01/25 12:05:32;;;;;;;7.15;4.50;;;;;;;;;;4962217;28;107724;-63
2021/01/25 12:07:58;;;;;;;9.20;5.70;;;;;;;;;;4993320;28;107277;-63
2021/01/25 12:10:24;;;;;;;8.90;5.32;;;;;;;;;;4976458;28;106218;-63
2021/01/25 12:12:49;;;;;;;8.13;4.88;;;;;;;;;;4964837;28;105055;-63
2021/01/25 12:15:15;;;;;;;13.73;10.07;;;;;;;;;;4998840;28;105360;-63
2021/01/25 12:17:41;;;;;;;12.05;8.60;;;;;;;;;;4997531;28;105436;-63
2021/01/25 12:20:06;;;;;;;5.25;3.67;;;;;;;;;;4980385;28;105008;-63
2021/01/25 12:22:32;;;;;;;6.10;3.88;;;;;;;;;;4995978;28;105512;-63
2021/01/25 12:24:57;;;;;;;8.57;3.65;;;;;;;;;;4997702;28;105943;-63
2021/01/25 12:27:23;;;;;;;5.35;3.45;;;;;;;;;;4999065;28;105055;-63
2021/01/25 12:29:48;;;;;;;5.10;3.50;;;;;;;;;;4997545;28;105219;-63
2021/01/25 12:32:14;;;;;;;4.85;3.45;;;;;;;;;;4996927;28;105039;-63
2021/01/25 12:34:39;;;;;;;3.42;2.60;;;;;;;;;;4995850;28;105130;-63
2021/01/25 12:37:05;;;;;;;3.20;2.20;;;;;;;;;;4993487;28;105628;-63
2021/01/25 12:39:30;;;;;;;4.88;2.60;;;;;;;;;;4993179;28;105036;-63
2021/01/25 12:41:56;;;;;;;3.80;2.58;;;;;;;;;;4999156;28;104944;-63
2021/01/25 12:44:21;;;;;;;4.38;2.80;;;;;;;;;;4996715;28;105009;-63
2021/01/25 12:46:50;;;;;;;3.28;2.50;;;;;;;;;;4976548;28;106044;-63
2021/01/25 12:49:16;;;;;;;3.78;2.50;;;;;;;;;;4998384;28;104993;-62
2021/01/25 12:51:41;;;;;;;3.75;2.35;;;;;;;;;;4979136;28;105451;-62
2021/01/25 12:54:07;;;;;;;3.85;2.47;;;;;;;;;;4991166;28;105754;-63
2021/01/25 12:56:32;;;;;;;3.88;2.72;;;;;;;;;;4992494;28;105288;-63
2021/01/25 12:58:58;;;;;;;4.13;2.85;;;;;;;;;;4995995;28;106317;-62
2021/01/25 13:01:24;;;;;;;4.55;2.88;;;;;;;;;;4998561;28;105596;-62
2021/01/25 13:03:49;;;;;;;3.72;2.60;;;;;;;;;;4995648;28;107240;-62
2021/01/25 13:06:15;;;;;;;3.88;2.63;;;;;;;;;;4994227;28;105067;-63
2021/01/25 13:08:40;;;;;;;5.75;3.13;;;;;;;;;;4997184;28;109299;-62
2021/01/25 13:11:06;;;;;;;3.90;2.58;;;;;;;;;;4998410;28;105055;-62
2021/01/25 13:13:31;;;;;;;4.13;2.80;;;;;;;;;;4996663;28;106188;-62
2021/01/25 13:15:57;;;;;;;4.00;2.45;;;;;;;;;;4993859;28;105172;-63
2021/01/25 13:18:23;;;;;;;4.15;2.70;;;;;;;;;;4977586;28;105300;-62
2021/01/25 13:20:48;;;;;;;4.38;2.70;;;;;;;;;;4995293;28;105734;-63
2021/01/25 13:23:14;;;;;;;4.35;2.58;;;;;;;;;;4994156;28;110769;-62
2021/01/25 13:25:40;;;;;;;3.30;2.40;;;;;;;;;;4994614;28;105117;-62
2021/01/25 13:28:08;;;;;;;3.55;2.40;;;;;;;;;;4998480;28;105056;-62
2021/01/25 13:30:34;;;;;;;3.70;2.40;;;;;;;;;;4984425;28;105168;-62
2021/01/25 13:32:59;;;;;;;3.05;2.20;;;;;;;;;;4997514;28;105050;-62
2021/01/25 13:35:25;;;;;;;3.08;2.30;;;;;;;;;;4996032;28;105030;-62
2021/01/25 13:37:51;;;;;;;3.28;2.17;;;;;;;;;;4978534;28;104964;-62
2021/01/25 13:40:17;;;;;;;4.00;2.50;;;;;;;;;;4994457;28;104981;-62
2021/01/25 13:42:43;;;;;;;3.10;1.92;;;;;;;;;;4978770;28;105643;-62
2021/01/25 13:45:12;;;;;;;3.03;1.90;;;;;;;;;;4993675;28;105221;-62
2021/01/25 13:47:37;;;;;;;1.92;1.80;;;;;;;;;;4973564;28;105163;-62
2021/01/25 13:50:03;;;;;;;3.03;2.00;;;;;;;;;;4990118;28;105143;-62
2021/01/25 13:52:29;;;;;;;3.47;1.88;;;;;;;;;;4976879;28;105518;-62
2021/01/25 13:54:54;;;;;;;3.05;2.00;;;;;;;;;;4972191;28;112032;-62
2021/01/25 13:57:23;;;;;;;3.25;2.10;;;;;;;;;;4972157;28;105021;-62
2021/01/25 13:59:48;;;;;;;3.00;1.90;;;;;;;;;;4989856;28;105006;-62
2021/01/25 14:02:14;;;;;;;2.70;1.92;;;;;;;;;;4993178;28;109465;-62
2021/01/25 14:04:39;;;;;;;3.00;2.13;;;;;;;;;;4996885;28;105263;-62
2021/01/25 14:07:05;;;;;;;1.90;1.60;;;;;;;;;;4990591;28;105631;-62
2021/01/25 14:09:30;;;;;;;2.63;1.90;;;;;;;;;;4989217;28;106024;-62
2021/01/25 14:11:57;;;;;;;3.42;2.17;;;;;;;;;;4990011;28;106618;-62
2021/01/25 14:14:23;;;;;;;2.35;1.83;;;;;;;;;;4994490;28;105644;-62
2021/01/25 14:16:49;;;;;;;2.78;1.80;;;;;;;;;;4990140;28;105384;-62
2021/01/25 14:19:14;;;;;;;3.05;2.20;;;;;;;;;;4975103;28;105606;-62
2021/01/25 14:21:40;;;;;;;2.60;2.00;;;;;;;;;;4989584;28;105735;-62
2021/01/25 14:24:05;;;;;;;4.55;2.20;;;;;;;;;;4990611;28;105660;-63
2021/01/25 14:26:31;;;;;;;3.13;2.20;;;;;;;;;;4991492;28;105097;-62
2021/01/25 14:28:56;;;;;;;2.00;1.80;;;;;;;;;;4989019;28;105201;-62